createdAt,value
2017-12-02T00:00:44.405Z,15.65
2017-12-02T00:03:12.703Z,16.65
2017-12-02T00:05:40.966Z,17.67
2017-12-02T00:08:09.343Z,16.33
2017-12-02T00:10:37.624Z,18.02
2017-12-02T00:13:05.882Z,16.90
2017-12-02T00:15:34.150Z,16.85
2017-12-02T00:18:03.188Z,16.10
2017-12-02T00:20:31.446Z,17.50
2017-12-02T00:22:59.718Z,16.08
2017-12-02T00:25:28.034Z,15.55
2017-12-02T00:27:56.355Z,16.95
2017-12-02T00:30:24.591Z,16.58
2017-12-02T00:32:52.871Z,17.02
2017-12-02T00:35:21.399Z,16.80
2017-12-02T00:37:49.661Z,16.95
2017-12-02T00:40:17.939Z,17.52
2017-12-02T00:42:46.211Z,16.95
2017-12-02T00:45:14.464Z,17.87
2017-12-02T00:47:42.741Z,16.90
2017-12-02T00:50:11.057Z,18.30
2017-12-02T00:52:39.355Z,17.95
2017-12-02T00:55:07.621Z,16.48
2017-12-02T00:57:35.896Z,18.17
2017-12-02T01:00:04.151Z,17.58
2017-12-02T01:02:33.387Z,17.35
2017-12-02T01:05:01.730Z,16.45
2017-12-02T01:07:30.006Z,17.00
2017-12-02T01:09:58.262Z,18.25
2017-12-02T01:12:26.639Z,16.40
2017-12-02T01:14:54.865Z,17.90
2017-12-02T01:17:23.137Z,17.60
2017-12-02T01:19:51.391Z,18.00
2017-12-02T01:22:20.458Z,16.30
2017-12-02T01:24:48.738Z,17.00
2017-12-02T01:27:17.119Z,17.80
2017-12-02T01:29:45.371Z,17.75
2017-12-02T01:32:13.655Z,16.25
2017-12-02T01:34:41.966Z,17.33
2017-12-02T01:37:10.244Z,16.70
2017-12-02T01:39:38.508Z,17.25
2017-12-02T01:42:06.778Z,16.73
2017-12-02T01:44:35.035Z,16.73
2017-12-02T01:47:03.301Z,17.45
2017-12-02T01:49:33.079Z,17.10
2017-12-02T01:52:01.407Z,17.35
2017-12-02T01:54:29.645Z,17.30
2017-12-02T01:56:57.918Z,16.35
2017-12-02T01:59:26.186Z,18.83
2017-12-02T02:01:54.450Z,15.40
2017-12-02T02:04:22.726Z,17.10
2017-12-02T02:06:51.042Z,17.08
2017-12-02T02:09:19.699Z,18.75
2017-12-02T02:11:48.015Z,16.42
2017-12-02T02:14:16.287Z,16.25
2017-12-02T02:16:44.538Z,16.40
2017-12-02T02:19:13.618Z,17.52
2017-12-02T02:21:41.871Z,16.73
2017-12-02T02:24:10.242Z,17.50
2017-12-02T02:26:38.502Z,16.08
2017-12-02T02:29:06.787Z,17.87
2017-12-02T02:31:35.039Z,15.20
2017-12-02T02:34:04.090Z,16.33
2017-12-02T02:36:32.384Z,16.90
2017-12-02T02:39:00.662Z,16.25
2017-12-02T02:41:28.923Z,15.57
2017-12-02T02:43:57.191Z,17.05
2017-12-02T02:46:26.022Z,16.98
2017-12-02T02:48:54.306Z,16.25
2017-12-02T02:51:22.560Z,15.57
2017-12-02T02:53:50.835Z,16.77
2017-12-02T02:56:19.095Z,16.23
2017-12-02T02:58:47.366Z,15.93
2017-12-02T03:01:15.630Z,16.55
2017-12-02T03:03:43.962Z,15.48
2017-12-02T03:06:12.205Z,17.80
2017-12-02T03:08:40.478Z,18.50
2017-12-02T03:11:09.520Z,16.50
2017-12-02T03:13:37.814Z,17.10
2017-12-02T03:16:06.083Z,18.30
2017-12-02T03:18:34.355Z,17.65
2017-12-02T03:21:02.608Z,17.35
2017-12-02T03:23:30.950Z,17.27
2017-12-02T03:25:59.300Z,17.23
2017-12-02T03:28:27.586Z,18.20
2017-12-02T03:30:55.845Z,17.37
2017-12-02T03:33:24.114Z,20.23
2017-12-02T03:35:52.375Z,16.90
2017-12-02T03:38:21.408Z,16.02
2017-12-02T03:40:49.667Z,16.42
2017-12-02T03:43:18.711Z,18.42
2017-12-02T03:45:46.953Z,16.87
2017-12-02T03:48:15.232Z,17.25
2017-12-02T03:50:43.492Z,17.58
2017-12-02T03:53:11.770Z,17.67
2017-12-02T03:55:40.019Z,19.58
2017-12-02T03:58:08.288Z,16.37
2017-12-02T04:00:36.546Z,16.42
2017-12-02T04:03:04.830Z,15.60
2017-12-02T04:05:33.087Z,17.02
2017-12-02T04:08:01.376Z,17.35
2017-12-02T04:10:29.654Z,18.27
2017-12-02T04:12:57.958Z,19.60
2017-12-02T04:15:26.282Z,16.95
2017-12-02T04:17:54.523Z,16.98
2017-12-02T04:20:22.775Z,17.35
2017-12-02T04:22:51.825Z,17.83
2017-12-02T04:25:20.205Z,17.45
2017-12-02T04:27:48.487Z,17.23
2017-12-02T04:30:16.739Z,17.52
2017-12-02T04:32:45.013Z,16.98
2017-12-02T04:35:13.310Z,16.42
2017-12-02T04:37:41.594Z,19.20
2017-12-02T04:40:09.866Z,18.65
2017-12-02T04:42:38.119Z,18.37
2017-12-02T04:45:06.438Z,20.90
2017-12-02T04:47:34.690Z,19.50
2017-12-02T04:50:02.966Z,20.62
2017-12-02T04:52:31.278Z,20.92
2017-12-02T04:54:59.683Z,19.37
2017-12-02T04:57:27.927Z,19.98
2017-12-02T04:59:56.192Z,20.10
2017-12-02T05:02:24.448Z,21.58
2017-12-02T05:04:53.494Z,18.60
2017-12-02T05:07:21.793Z,17.92
2017-12-02T05:09:50.173Z,19.35
2017-12-02T05:12:18.419Z,21.87
2017-12-02T05:14:46.681Z,21.00
2017-12-02T05:17:15.728Z,19.48
2017-12-02T05:19:44.006Z,21.23
2017-12-02T05:22:12.298Z,20.77
2017-12-02T05:24:40.692Z,19.83
2017-12-02T05:27:08.950Z,20.70
2017-12-02T05:29:37.219Z,20.23
2017-12-02T05:32:05.484Z,20.42
2017-12-02T05:34:33.758Z,19.10
2017-12-02T05:37:02.010Z,21.23
2017-12-02T05:39:30.287Z,20.23
2017-12-02T05:41:58.631Z,20.88
2017-12-02T05:44:26.922Z,20.10
2017-12-02T05:46:55.171Z,19.75
2017-12-02T05:49:23.439Z,20.27
2017-12-02T05:51:51.683Z,20.20
2017-12-02T05:54:19.959Z,21.60
2017-12-02T05:56:48.209Z,21.27
2017-12-02T05:59:16.512Z,21.90
2017-12-02T06:01:44.763Z,21.17
2017-12-02T06:04:13.060Z,23.70
2017-12-02T06:06:41.308Z,22.92
2017-12-02T06:09:09.751Z,21.40
2017-12-02T06:11:38.249Z,22.50
2017-12-02T06:14:07.495Z,20.45
2017-12-02T06:16:35.748Z,20.08
2017-12-02T06:19:04.798Z,19.23
2017-12-02T06:21:33.039Z,19.65
2017-12-02T06:24:01.317Z,19.00
2017-12-02T06:26:29.569Z,20.70
2017-12-02T06:28:58.618Z,19.33
2017-12-02T06:31:26.879Z,20.73
2017-12-02T06:33:55.190Z,19.90
2017-12-02T06:36:23.551Z,19.52
2017-12-02T06:38:51.820Z,19.55
2017-12-02T06:41:20.071Z,20.67
2017-12-02T06:43:48.336Z,17.80
2017-12-02T06:46:16.691Z,20.17
2017-12-02T06:48:44.962Z,15.98
2017-12-02T06:51:13.254Z,17.60
2017-12-02T06:53:41.531Z,19.73
2017-12-02T06:56:09.790Z,17.95
2017-12-02T06:58:38.062Z,19.65
2017-12-02T07:01:06.324Z,22.40
2017-12-02T07:03:35.378Z,20.20
2017-12-02T07:06:03.637Z,18.40
2017-12-02T07:08:32.326Z,18.98
2017-12-02T07:11:00.643Z,21.65
2017-12-02T07:13:29.049Z,19.98
2017-12-02T07:15:57.291Z,20.20
2017-12-02T07:18:26.363Z,20.35
2017-12-02T07:20:54.616Z,20.00
2017-12-02T07:23:23.646Z,20.35
2017-12-02T07:25:51.902Z,21.15
2017-12-02T07:28:20.194Z,20.48
2017-12-02T07:30:48.460Z,22.62
2017-12-02T07:33:17.475Z,20.83
2017-12-02T07:35:45.747Z,21.02
2017-12-02T07:38:14.021Z,20.15
2017-12-02T07:40:42.342Z,21.50
2017-12-02T07:43:10.597Z,21.67
2017-12-02T07:45:38.871Z,21.87
2017-12-02T07:48:07.964Z,21.00
2017-12-02T07:50:36.242Z,20.48
2017-12-02T07:53:05.282Z,21.23
2017-12-02T07:55:33.583Z,20.33
2017-12-02T07:58:02.099Z,21.62
2017-12-02T08:00:31.138Z,20.33
2017-12-02T08:02:59.441Z,21.35
2017-12-02T08:05:27.829Z,23.75
2017-12-02T08:07:56.087Z,19.98
2017-12-02T08:10:24.350Z,22.02
2017-12-02T08:12:52.626Z,20.02
2017-12-02T08:15:20.935Z,21.15
2017-12-02T08:17:49.186Z,23.95
2017-12-02T08:20:17.482Z,21.90
2017-12-02T08:22:45.739Z,23.58
2017-12-02T08:25:14.797Z,23.98
2017-12-02T08:27:43.063Z,21.40
2017-12-02T08:30:11.330Z,21.48
2017-12-02T08:32:39.583Z,20.90
2017-12-02T08:35:07.886Z,21.80
2017-12-02T08:37:36.141Z,24.10
2017-12-02T08:40:04.465Z,22.37
2017-12-02T08:42:32.734Z,23.98
2017-12-02T08:45:01.022Z,22.98
2017-12-02T08:47:29.291Z,20.98
2017-12-02T08:49:57.617Z,26.92
2017-12-02T08:52:25.879Z,21.48
2017-12-02T08:54:54.249Z,21.27
2017-12-02T08:57:22.518Z,23.25
2017-12-02T08:59:50.811Z,21.17
2017-12-02T09:02:19.072Z,24.45
2017-12-02T09:04:47.397Z,21.00
2017-12-02T09:07:15.628Z,20.33
2017-12-02T09:09:43.941Z,22.65
2017-12-02T09:12:12.191Z,20.80
2017-12-02T09:14:41.071Z,24.12
2017-12-02T09:17:09.392Z,23.95
2017-12-02T09:19:37.723Z,21.30
2017-12-02T09:22:06.099Z,21.80
2017-12-02T09:24:35.123Z,21.77
2017-12-02T09:27:03.528Z,22.73
2017-12-02T09:29:32.065Z,22.75
2017-12-02T09:32:00.324Z,24.10
2017-12-02T09:34:28.603Z,21.83
2017-12-02T09:36:57.634Z,22.62
2017-12-02T09:39:25.949Z,21.60
2017-12-02T09:41:54.220Z,22.45
2017-12-02T09:44:22.482Z,21.65
2017-12-02T09:46:50.742Z,22.65
2017-12-02T09:49:19.782Z,22.40
2017-12-02T09:51:48.461Z,21.52
2017-12-02T09:54:16.997Z,24.35
2017-12-02T09:56:45.276Z,22.73
2017-12-02T09:59:13.816Z,23.58
2017-12-02T10:01:42.333Z,21.98
2017-12-02T10:04:10.609Z,22.90
2017-12-02T10:06:38.889Z,23.35
2017-12-02T10:09:07.167Z,22.58
2017-12-02T10:11:35.438Z,23.27
2017-12-02T10:14:03.703Z,22.10
2017-12-02T10:16:31.983Z,21.90
2017-12-02T10:19:00.238Z,23.62
2017-12-02T10:21:28.547Z,21.48
2017-12-02T10:23:56.803Z,21.27
2017-12-02T10:26:25.087Z,21.75
2017-12-02T10:28:53.331Z,21.62
2017-12-02T10:31:21.598Z,21.85
2017-12-02T10:33:49.853Z,19.45
2017-12-02T10:36:18.124Z,23.17
2017-12-02T10:38:46.742Z,21.33
2017-12-02T10:41:15.006Z,21.23
2017-12-02T10:43:43.262Z,21.08
2017-12-02T10:46:11.538Z,21.42
2017-12-02T10:48:39.790Z,21.37
2017-12-02T10:51:08.065Z,22.70
2017-12-02T10:53:36.325Z,19.85
2017-12-02T10:56:04.674Z,20.30
2017-12-02T10:58:32.979Z,21.00
2017-12-02T11:01:01.246Z,22.35
2017-12-02T11:03:29.675Z,20.98
2017-12-02T11:05:57.941Z,23.40
2017-12-02T11:08:26.196Z,18.85
2017-12-02T11:10:54.486Z,19.52
2017-12-02T11:13:22.745Z,19.40
2017-12-02T11:15:50.999Z,20.48
2017-12-02T11:18:20.142Z,20.65
2017-12-02T11:20:48.382Z,20.15
2017-12-02T11:23:16.655Z,20.25
2017-12-02T11:25:45.673Z,21.77
2017-12-02T11:28:14.009Z,20.70
2017-12-02T11:30:42.270Z,20.92
2017-12-02T11:33:10.581Z,20.75
2017-12-02T11:35:38.849Z,19.17
2017-12-02T11:38:07.101Z,19.40
2017-12-02T11:40:35.423Z,19.42
2017-12-02T11:43:04.588Z,20.83
2017-12-02T11:45:32.846Z,19.50
2017-12-02T11:48:01.223Z,18.92
2017-12-02T11:50:29.483Z,21.00
2017-12-02T11:52:58.524Z,19.05
2017-12-02T11:55:26.771Z,21.30
2017-12-02T11:57:55.056Z,19.75
2017-12-02T12:00:23.607Z,20.55
2017-12-02T12:02:52.220Z,19.75
2017-12-02T12:05:20.618Z,20.52
2017-12-02T12:07:49.373Z,19.08
2017-12-02T12:10:17.984Z,20.27
2017-12-02T12:12:47.030Z,16.85
2017-12-02T12:15:15.285Z,17.73
2017-12-02T12:17:43.564Z,17.30
2017-12-02T12:20:11.818Z,18.08
2017-12-02T12:22:40.868Z,19.20
2017-12-02T12:25:09.110Z,17.53
2017-12-02T12:27:37.367Z,18.70
2017-12-02T12:30:06.411Z,17.63
2017-12-02T12:32:34.688Z,19.93
2017-12-02T12:35:02.959Z,18.80
2017-12-02T12:37:31.226Z,18.52
2017-12-02T12:40:00.263Z,17.83
2017-12-02T12:42:28.519Z,19.05
2017-12-02T12:44:56.799Z,18.15
2017-12-02T12:47:25.110Z,18.20
2017-12-02T12:49:53.378Z,17.33
2017-12-02T12:52:21.639Z,17.90
2017-12-02T12:54:49.950Z,19.40
2017-12-02T12:57:18.225Z,18.53
2017-12-02T12:59:46.504Z,17.52
2017-12-02T13:02:14.754Z,19.57
2017-12-02T13:04:43.039Z,20.65
2017-12-02T13:07:11.293Z,20.90
2017-12-02T13:09:40.330Z,18.00
2017-12-02T13:12:08.574Z,20.07
2017-12-02T13:14:37.621Z,18.70
2017-12-02T13:17:05.882Z,21.07
2017-12-02T13:19:34.219Z,20.20
2017-12-02T13:22:02.446Z,18.53
2017-12-02T13:24:30.724Z,18.77
2017-12-02T13:26:58.983Z,17.70
2017-12-02T13:29:28.019Z,16.33
2017-12-02T13:31:56.428Z,13.73
2017-12-02T13:34:24.726Z,14.75
2017-12-02T13:36:52.967Z,11.60
2017-12-02T13:39:21.227Z,12.50
2017-12-02T13:41:49.504Z,12.57
2017-12-02T13:44:17.766Z,11.53
2017-12-02T13:46:46.015Z,12.90
2017-12-02T13:49:14.267Z,13.13
2017-12-02T13:51:42.538Z,12.48
2017-12-02T13:54:10.810Z,12.17
2017-12-02T13:56:39.086Z,12.50
2017-12-02T13:59:07.370Z,11.45
2017-12-02T14:01:35.657Z,11.57
2017-12-02T14:04:03.997Z,14.30
2017-12-02T14:06:32.245Z,13.65
2017-12-02T14:09:00.503Z,13.23
2017-12-02T14:11:28.783Z,13.70
2017-12-02T14:13:57.022Z,13.70
2017-12-02T14:16:26.399Z,15.50
2017-12-02T14:18:55.151Z,14.48
2017-12-02T14:21:23.408Z,12.00
2017-12-02T14:23:52.421Z,13.03
2017-12-02T14:26:20.718Z,11.50
2017-12-02T14:28:48.973Z,12.80
2017-12-02T14:31:18.020Z,13.32
2017-12-02T14:33:46.265Z,12.87
2017-12-02T14:36:14.541Z,13.82
2017-12-02T14:38:42.815Z,15.93
2017-12-02T14:41:11.228Z,17.10
2017-12-02T14:43:39.523Z,18.83
2017-12-02T14:46:07.833Z,21.15
2017-12-02T14:48:36.190Z,17.00
2017-12-02T14:51:04.491Z,15.43
2017-12-02T14:53:32.924Z,17.05
2017-12-02T14:56:01.294Z,17.42
2017-12-02T14:58:29.623Z,16.58
2017-12-02T15:00:57.906Z,16.58
2017-12-02T15:03:26.481Z,16.77
2017-12-02T15:05:54.783Z,18.75
2017-12-02T15:08:23.073Z,17.10
2017-12-02T15:10:51.344Z,16.50
2017-12-02T15:13:19.650Z,16.23
2017-12-02T15:15:48.715Z,16.73
2017-12-02T15:18:16.975Z,18.60
2017-12-02T15:20:45.261Z,18.12
2017-12-02T15:23:13.563Z,17.42
2017-12-02T15:25:41.808Z,18.23
2017-12-02T15:28:10.705Z,18.17
2017-12-02T15:30:39.010Z,19.75
2017-12-02T15:33:07.285Z,19.58
2017-12-02T15:35:35.591Z,18.37
2017-12-02T15:38:03.870Z,19.45
2017-12-02T15:40:32.118Z,20.70
2017-12-02T15:43:00.430Z,20.70
2017-12-02T15:45:28.684Z,18.83
2017-12-02T15:47:56.956Z,18.12
2017-12-02T15:50:25.266Z,20.77
2017-12-02T15:52:53.519Z,19.87
2017-12-02T15:55:21.797Z,19.45
2017-12-02T15:57:50.083Z,21.20
2017-12-02T16:00:19.197Z,18.70
2017-12-02T16:02:47.586Z,19.92
2017-12-02T16:05:15.893Z,21.15
2017-12-02T16:07:44.118Z,19.73
2017-12-02T16:10:12.406Z,23.15
2017-12-02T16:12:40.682Z,21.75
2017-12-02T16:15:08.958Z,22.48
2017-12-02T16:17:37.214Z,20.73
2017-12-02T16:20:06.366Z,24.50
2017-12-02T16:22:34.624Z,20.50
2017-12-02T16:25:02.938Z,19.50
2017-12-02T16:27:31.274Z,18.87
2017-12-02T16:29:59.607Z,16.30
2017-12-02T16:32:29.366Z,16.12
2017-12-02T16:34:57.627Z,19.90
2017-12-02T16:37:26.663Z,18.08
2017-12-02T16:39:54.942Z,15.80
2017-12-02T16:42:23.671Z,15.95
2017-12-02T16:44:52.030Z,17.92
2017-12-02T16:47:20.470Z,16.23
2017-12-02T16:49:49.514Z,17.42
2017-12-02T16:52:17.761Z,17.42
2017-12-02T16:54:46.036Z,16.10
2017-12-02T16:57:14.293Z,18.45
2017-12-02T16:59:42.564Z,17.85
2017-12-02T17:02:10.835Z,18.10
2017-12-02T17:04:39.108Z,16.40
2017-12-02T17:07:07.369Z,16.67
2017-12-02T17:09:35.643Z,18.30
2017-12-02T17:12:03.897Z,18.00
2017-12-02T17:14:32.222Z,18.55
2017-12-02T17:17:00.527Z,19.75
2017-12-02T17:19:28.898Z,18.33
2017-12-02T17:22:00.537Z,15.90
2017-12-02T17:24:28.833Z,18.67
2017-12-02T17:26:57.099Z,18.73
2017-12-02T17:29:25.370Z,16.65
2017-12-02T17:31:53.623Z,17.83
2017-12-02T17:34:22.644Z,18.00
2017-12-02T17:36:50.915Z,18.73
2017-12-02T17:39:19.226Z,17.87
2017-12-02T17:41:48.180Z,20.67
2017-12-02T17:44:16.571Z,20.40
2017-12-02T17:46:44.834Z,21.40
2017-12-02T17:49:13.858Z,22.02
2017-12-02T17:51:42.136Z,22.48
2017-12-02T17:54:10.412Z,22.83
2017-12-02T17:56:38.693Z,22.65
2017-12-02T17:59:06.938Z,26.27
2017-12-02T18:01:36.159Z,26.02
2017-12-02T18:04:04.394Z,47.28
2017-12-02T18:06:32.693Z,26.70
2017-12-02T18:09:00.933Z,26.42
2017-12-02T18:11:29.199Z,27.40
2017-12-02T18:13:57.518Z,22.23
2017-12-02T18:16:25.786Z,24.10
2017-12-02T18:18:54.065Z,26.70
2017-12-02T18:21:22.340Z,24.58
2017-12-02T18:23:50.822Z,24.83
2017-12-02T18:26:19.114Z,26.52
2017-12-02T18:28:47.369Z,26.33
2017-12-02T18:31:15.645Z,23.92
2017-12-02T18:33:43.891Z,22.65
2017-12-02T18:36:12.258Z,24.05
2017-12-02T18:38:40.515Z,23.33
2017-12-02T18:41:08.787Z,23.02
2017-12-02T18:43:37.077Z,21.25
2017-12-02T18:46:05.338Z,20.12
2017-12-02T18:48:33.676Z,24.73
2017-12-02T18:51:01.930Z,24.12
2017-12-02T18:53:30.198Z,24.30
2017-12-02T18:55:58.479Z,23.17
2017-12-02T18:58:26.748Z,23.92
2017-12-02T19:00:55.015Z,22.10
2017-12-02T19:03:23.343Z,23.60
2017-12-02T19:05:51.840Z,23.90
2017-12-02T19:08:20.101Z,23.67
2017-12-02T19:10:48.380Z,24.27
2017-12-02T19:13:16.675Z,23.25
2017-12-02T19:15:44.939Z,24.17
2017-12-02T19:18:13.219Z,26.10
2017-12-02T19:20:41.486Z,22.15
2017-12-02T19:23:09.770Z,24.00
2017-12-02T19:25:38.163Z,24.57
2017-12-02T19:28:06.425Z,26.73
2017-12-02T19:30:34.703Z,24.60
2017-12-02T19:33:02.979Z,27.85
2017-12-02T19:35:31.262Z,26.35
2017-12-02T19:37:59.569Z,26.30
2017-12-02T19:40:27.834Z,28.20
2017-12-02T19:42:56.101Z,23.42
2017-12-02T19:45:24.421Z,25.20
2017-12-02T19:47:52.780Z,25.52
2017-12-02T19:50:21.062Z,24.10
2017-12-02T19:52:49.346Z,24.00
2017-12-02T19:55:17.618Z,26.25
2017-12-02T19:57:45.895Z,25.40
2017-12-02T20:00:14.168Z,24.02
2017-12-02T20:02:43.419Z,25.77
2017-12-02T20:05:11.697Z,25.88
2017-12-02T20:07:39.958Z,24.05
2017-12-02T20:10:08.222Z,25.33
2017-12-02T20:12:36.487Z,24.45
2017-12-02T20:15:04.773Z,24.77
2017-12-02T20:17:33.263Z,24.98
2017-12-02T20:20:01.915Z,24.73
2017-12-02T20:22:30.255Z,23.70
2017-12-02T20:24:58.553Z,24.05
2017-12-02T20:27:26.822Z,25.80
2017-12-02T20:29:55.098Z,26.23
2017-12-02T20:32:23.380Z,24.08
2017-12-02T20:34:51.822Z,24.05
2017-12-02T20:37:20.863Z,25.52
2017-12-02T20:39:49.122Z,24.95
2017-12-02T20:42:17.387Z,23.60
2017-12-02T20:44:45.658Z,23.10
2017-12-02T20:47:14.686Z,22.13
2017-12-02T20:49:42.952Z,23.02
2017-12-02T20:52:11.258Z,24.00
2017-12-02T20:54:39.518Z,25.10
2017-12-02T20:57:07.800Z,24.73
2017-12-02T20:59:36.065Z,26.35
2017-12-02T21:02:04.445Z,25.70
2017-12-02T21:04:32.699Z,25.17
2017-12-02T21:07:00.974Z,23.70
2017-12-02T21:09:29.244Z,24.50
2017-12-02T21:11:57.513Z,24.40
2017-12-02T21:14:25.759Z,24.10
2017-12-02T21:16:54.039Z,25.48
2017-12-02T21:19:22.289Z,26.47
2017-12-02T21:21:51.446Z,26.75
2017-12-02T21:24:19.693Z,25.73
2017-12-02T21:26:47.967Z,26.08
2017-12-02T21:29:17.010Z,25.95
2017-12-02T21:31:45.282Z,25.55
2017-12-02T21:34:13.557Z,24.40
2017-12-02T21:36:41.835Z,24.63
2017-12-02T21:39:10.091Z,26.40
2017-12-02T21:41:39.238Z,25.83
2017-12-02T21:44:07.550Z,24.10
2017-12-02T21:46:35.942Z,24.83
2017-12-02T21:49:04.227Z,24.23
2017-12-02T21:51:34.036Z,26.75
2017-12-02T21:54:03.095Z,23.95
2017-12-02T21:56:31.370Z,24.20
2017-12-02T21:58:59.618Z,24.90
2017-12-02T22:01:28.172Z,25.17
2017-12-02T22:03:57.684Z,23.25
2017-12-02T22:06:27.193Z,25.48
2017-12-02T22:08:56.290Z,23.35
2017-12-02T22:11:25.510Z,24.73
2017-12-02T22:13:54.518Z,23.60
2017-12-02T22:16:22.798Z,22.15
2017-12-02T22:18:51.050Z,22.57
2017-12-02T22:21:19.396Z,22.97
2017-12-02T22:23:47.645Z,22.33
2017-12-02T22:26:16.763Z,22.40
2017-12-02T22:28:45.119Z,23.13
2017-12-02T22:31:14.138Z,24.75
2017-12-02T22:33:42.438Z,25.65
2017-12-02T22:36:10.702Z,25.98
2017-12-02T22:38:38.956Z,25.23
2017-12-02T22:41:07.247Z,25.85
2017-12-02T22:43:36.466Z,23.80
2017-12-02T22:46:04.746Z,23.45
2017-12-02T22:48:33.009Z,23.70
2017-12-02T22:51:01.389Z,24.40
2017-12-02T22:53:30.432Z,24.27
2017-12-02T22:55:58.700Z,25.37
2017-12-02T22:58:26.947Z,26.00
2017-12-02T23:00:55.978Z,22.73
2017-12-02T23:03:24.238Z,25.37
2017-12-02T23:05:52.542Z,25.88
2017-12-02T23:08:20.808Z,23.77
2017-12-02T23:10:49.069Z,25.45
2017-12-02T23:13:17.329Z,24.45
2017-12-02T23:15:46.375Z,23.62
2017-12-02T23:18:14.654Z,20.87
2017-12-02T23:20:42.931Z,22.23
2017-12-02T23:23:11.215Z,22.73
2017-12-02T23:25:39.470Z,23.15
2017-12-02T23:28:07.816Z,24.33
2017-12-02T23:30:36.061Z,23.07
2017-12-02T23:33:04.341Z,22.40
2017-12-02T23:35:32.619Z,23.60
2017-12-02T23:38:00.893Z,24.27
2017-12-02T23:40:30.092Z,22.42
2017-12-02T23:42:58.380Z,23.53
2017-12-02T23:45:26.628Z,23.12
2017-12-02T23:47:55.774Z,24.15
2017-12-02T23:50:24.055Z,22.83
2017-12-02T23:52:52.317Z,23.10
2017-12-02T23:55:20.582Z,22.77
2017-12-02T23:57:49.606Z,22.13
